Sugar Land Regional Airport
KSGR : now visible

Airfield :











YOU CAN JOIN US ON...

 
LOGIN :

Register | Disclaimer

   EN    FR    IT 

 









Legend :    VFR   Marginal VFR   IFR   Intensive IFR   Very Intensive IFR
Visi :
Ceiling :
>= 8 km
>= 3000ft
5 to 8 km
1000 to 3000 ft
1500m to 5 km
500 to 1000 ft
800 to 1500m
200 to 500 ft
< 800m
< 200 ft
Symbols :   Thunderstorms  Fog  Heavy snow  Heavy precipitations  Wind > 20 kt







- Airport Elevation : 82 ft


KSGR - Sugar Land Regional

CURRENT METAR :
  • 201753Z 17009KT 10SM SCT045 33/23 A2998 RMK AO2 SLP153 T03330228 10339 20250 58007

EXPIRED METARs :
  • 201653Z 14009KT 10SM CLR 33/24 A2999 RMK AO2 SLP156 T03280239
  • 201553Z 19009KT 10SM FEW025 FEW030 32/24 A3000 RMK AO2 SLP158 T03170244

TAF KSGR
Valid from the 20 at 18:00 until the 21 at 18:00 UTC


201724Z 2018/2118 16009KT P6SM SCT040 SCT250
FM210200 16006KT P6SM FEW025 SCT250
FM211100 VRB03KT P6SM SCT025 SCT250
FM211600 19006KT P6SM VCSH SCT025 BKN035
KZHU FIR / North America



MET'MAP, your aeronautical weather chart ! - Copyright ORBIFLY December 2007 - Disclaimer

ORBIFLY MET'MAP TEAM :

Programming & Development : Alexandra Zaïnal
Concept & Development : Baudouin d'Aumeries
Co-Development & Prog : Marc-Olivier Méhu
Technical & hardware support : Manuel Goepfert

Contact : metmap@orbifly.com




SOURCES & CREDITS :

   NOAA       Earth
Advisory